Time;durP1;ratioP1;P1;durP2;ratioP2;P2;SDS_P1;SDS_P2;PMS_P1;PMS_P2;Temp;Humidity;BMP_temperature;BMP_pressure;BME280_temperature;BME280_humidity;BME280_pressure;Samples;Min_cycle;Max_cycle;Signal;HPM_P1;HPM_P2
2023/05/12 00:01:26;;;;;;;0.10;0.10;;;11.00;99.90;;;;;;4997376;28;20034;-73
2023/05/12 00:03:52;;;;;;;0.10;0.10;;;11.00;99.90;;;;;;4995466;28;20022;-73
2023/05/12 00:06:18;;;;;;;0.20;0.20;;;11.00;99.90;;;;;;4996976;28;20073;-73
2023/05/12 00:08:44;;;;;;;0.20;0.20;;;11.10;99.90;;;;;;4996160;28;20480;-73
2023/05/12 00:11:10;;;;;;;0.20;0.20;;;11.10;99.90;;;;;;4996638;28;20044;-73
2023/05/12 00:13:35;;;;;;;0.20;0.20;;;11.10;99.90;;;;;;4996425;28;20027;-73
2023/05/12 00:16:02;;;;;;;0.25;0.25;;;11.00;99.90;;;;;;4996514;28;20030;-73
2023/05/12 00:18:28;;;;;;;0.20;0.20;;;11.00;99.90;;;;;;4996476;28;20030;-73
2023/05/12 00:20:54;;;;;;;0.20;0.20;;;10.90;99.90;;;;;;4996485;28;20068;-73
2023/05/12 00:23:19;;;;;;;0.22;0.22;;;10.80;99.90;;;;;;4996049;28;20057;-72
2023/05/12 00:25:45;;;;;;;0.10;0.10;;;10.80;99.90;;;;;;4996257;28;20023;-73
2023/05/12 00:28:10;;;;;;;0.20;0.20;;;10.70;99.90;;;;;;4996417;28;20026;-73
2023/05/12 00:30:36;;;;;;;0.10;0.10;;;10.60;99.90;;;;;;4996286;28;20049;-73
2023/05/12 00:33:02;;;;;;;0.22;0.22;;;10.60;99.90;;;;;;4996213;28;20048;-73
2023/05/12 00:35:28;;;;;;;0.20;0.20;;;10.50;99.90;;;;;;4995746;28;20034;-73
2023/05/12 00:37:53;;;;;;;0.20;0.20;;;10.50;99.90;;;;;;4996383;28;20030;-73
2023/05/12 00:40:19;;;;;;;0.20;0.20;;;10.40;99.90;;;;;;4996376;28;20109;-73
2023/05/12 00:42:44;;;;;;;0.20;0.20;;;10.30;99.90;;;;;;4996802;28;20026;-73
2023/05/12 00:45:10;;;;;;;0.20;0.20;;;10.30;99.90;;;;;;4996687;28;20503;-73
2023/05/12 00:47:36;;;;;;;0.20;0.20;;;10.30;99.90;;;;;;4996515;28;20037;-73
2023/05/12 00:50:04;;;;;;;0.15;0.15;;;10.30;99.90;;;;;;4994549;28;20030;-73
2023/05/12 00:52:30;;;;;;;0.20;0.20;;;10.30;99.90;;;;;;4995794;28;20087;-73
2023/05/12 00:54:56;;;;;;;0.10;0.10;;;10.30;99.90;;;;;;4994560;28;20034;-73
2023/05/12 00:57:24;;;;;;;0.20;0.20;;;10.30;99.90;;;;;;4995630;28;20041;-73
2023/05/12 00:59:50;;;;;;;0.10;0.10;;;10.30;99.90;;;;;;4996061;28;20376;-73
2023/05/12 01:02:16;;;;;;;0.20;0.20;;;10.30;99.90;;;;;;4995134;28;20019;-71
2023/05/12 01:04:42;;;;;;;0.20;0.20;;;10.30;99.90;;;;;;4995567;28;20050;-73
2023/05/12 01:07:34;;;;;;;0.20;0.20;;;10.20;99.90;;;;;;4995643;28;20041;-73
2023/05/12 01:09:59;;;;;;;0.20;0.20;;;10.20;99.90;;;;;;4993649;28;20066;-73
2023/05/12 01:12:26;;;;;;;0.20;0.20;;;10.20;99.90;;;;;;4995440;28;20035;-72
2023/05/12 01:14:53;;;;;;;0.20;0.20;;;10.20;99.90;;;;;;5009415;28;20048;-73
2023/05/12 01:17:23;;;;;;;0.20;0.20;;;10.10;99.90;;;;;;5014928;28;20079;-73
2023/05/12 01:19:55;;;;;;;0.20;0.20;;;10.10;99.90;;;;;;5015235;28;20022;-73
2023/05/12 01:22:21;;;;;;;0.20;0.20;;;10.10;99.90;;;;;;5014925;28;20387;-73
2023/05/12 01:24:57;;;;;;;0.20;0.20;;;10.20;99.90;;;;;;4996750;28;20141;-73
2023/05/12 01:27:26;;;;;;;0.30;0.30;;;10.20;99.90;;;;;;5015008;28;20108;-73
2023/05/12 01:29:54;;;;;;;0.20;0.20;;;10.20;99.90;;;;;;4988806;28;20034;-73
2023/05/12 01:32:21;;;;;;;0.20;0.20;;;10.20;99.90;;;;;;4977620;28;20388;-73
2023/05/12 01:34:46;;;;;;;0.13;0.13;;;10.20;99.90;;;;;;4975130;28;20030;-72
2023/05/12 01:37:12;;;;;;;0.20;0.20;;;10.20;99.90;;;;;;4974356;28;20041;-72
2023/05/12 01:39:38;;;;;;;0.20;0.20;;;10.20;99.90;;;;;;4984456;28;20027;-73
2023/05/12 01:42:06;;;;;;;0.20;0.20;;;10.30;99.90;;;;;;4990093;28;20018;-73
2023/05/12 01:44:32;;;;;;;0.20;0.20;;;10.20;99.90;;;;;;4975563;28;20026;-73
2023/05/12 01:46:57;;;;;;;0.20;0.20;;;10.30;99.90;;;;;;4989991;28;20030;-72
2023/05/12 01:49:23;;;;;;;0.20;0.20;;;10.30;99.90;;;;;;4975241;28;20433;-72
2023/05/12 01:51:48;;;;;;;0.20;0.20;;;10.40;99.90;;;;;;4975221;28;20030;-73
2023/05/12 01:54:14;;;;;;;0.20;0.20;;;10.40;99.90;;;;;;4974855;28;20026;-73
2023/05/12 01:56:40;;;;;;;0.20;0.20;;;10.40;99.90;;;;;;4988015;28;20105;-73
2023/05/12 01:59:06;;;;;;;0.20;0.20;;;10.50;99.90;;;;;;4994549;28;20396;-73
2023/05/12 02:01:32;;;;;;;0.20;0.20;;;10.50;99.90;;;;;;4994368;28;20022;-73
2023/05/12 02:03:58;;;;;;;0.10;0.10;;;10.60;99.90;;;;;;4993663;28;20029;-72
2023/05/12 02:06:25;;;;;;;0.20;0.20;;;10.60;99.90;;;;;;4976831;28;20120;-73
2023/05/12 02:08:50;;;;;;;0.20;0.20;;;10.60;99.90;;;;;;4994141;28;20546;-73
2023/05/12 02:11:16;;;;;;;0.20;0.20;;;10.70;99.90;;;;;;4976778;28;20034;-73
2023/05/12 02:13:45;;;;;;;0.20;0.20;;;10.70;99.90;;;;;;4994211;28;20045;-73
2023/05/12 02:16:11;;;;;;;0.20;0.20;;;10.70;99.90;;;;;;4993842;28;20085;-73
2023/05/12 02:18:37;;;;;;;0.10;0.10;;;10.80;99.90;;;;;;4993770;28;20611;-73
2023/05/12 02:21:02;;;;;;;0.20;0.20;;;10.90;99.90;;;;;;4994037;28;20103;-73
2023/05/12 02:23:28;;;;;;;0.20;0.20;;;10.90;99.90;;;;;;4994079;28;20029;-73
2023/05/12 02:25:53;;;;;;;0.30;0.30;;;10.90;99.90;;;;;;4994021;28;20022;-73
2023/05/12 02:28:19;;;;;;;0.20;0.20;;;10.90;99.90;;;;;;4993551;28;20065;-72
2023/05/12 02:30:49;;;;;;;0.20;0.20;;;10.90;99.90;;;;;;4993924;28;20026;-73
2023/05/12 02:33:18;;;;;;;0.20;0.20;;;10.90;99.90;;;;;;4980512;28;20062;-73
2023/05/12 02:35:44;;;;;;;0.17;0.17;;;11.00;99.90;;;;;;4993595;28;20034;-73
2023/05/12 02:38:11;;;;;;;0.20;0.20;;;11.00;99.90;;;;;;4979413;28;20084;-73
2023/05/12 02:40:36;;;;;;;0.20;0.20;;;11.00;99.90;;;;;;4985334;28;20468;-73
2023/05/12 02:43:02;;;;;;;0.20;0.20;;;11.00;99.90;;;;;;4975560;28;20109;-73
2023/05/12 02:45:28;;;;;;;0.10;0.10;;;11.10;99.90;;;;;;4970302;28;20068;-73
2023/05/12 02:47:53;;;;;;;0.20;0.20;;;11.10;99.90;;;;;;4974468;28;20026;-73
2023/05/12 02:50:20;;;;;;;0.13;0.13;;;11.10;99.90;;;;;;4984929;28;20492;-73
2023/05/12 02:52:49;;;;;;;0.20;0.20;;;11.10;99.90;;;;;;4975647;28;20031;-73
2023/05/12 02:55:14;;;;;;;0.20;0.20;;;11.20;99.90;;;;;;4979506;28;20034;-73
2023/05/12 02:57:41;;;;;;;0.20;0.20;;;11.10;99.90;;;;;;4974198;28;20035;-73
2023/05/12 03:00:07;;;;;;;0.13;0.13;;;11.10;99.90;;;;;;4974130;28;20149;-73
2023/05/12 03:02:33;;;;;;;0.20;0.20;;;11.20;99.90;;;;;;4974309;28;20077;-73
2023/05/12 03:04:59;;;;;;;0.20;0.20;;;11.20;99.90;;;;;;4988732;28;20075;-73
2023/05/12 03:07:25;;;;;;;0.20;0.20;;;11.20;99.90;;;;;;4982187;28;20081;-73
2023/05/12 03:09:50;;;;;;;0.20;0.20;;;11.20;99.90;;;;;;4985219;28;20034;-73
2023/05/12 03:12:17;;;;;;;0.10;0.10;;;11.20;99.90;;;;;;4980985;28;20046;-73
2023/05/12 03:14:43;;;;;;;0.10;0.10;;;11.20;99.90;;;;;;4980735;28;20114;-73
2023/05/12 03:17:08;;;;;;;0.13;0.13;;;11.30;99.90;;;;;;4988614;28;20034;-73
2023/05/12 03:19:34;;;;;;;0.15;0.15;;;11.30;99.90;;;;;;4989244;28;20023;-73
2023/05/12 03:22:00;;;;;;;0.17;0.17;;;11.30;99.90;;;;;;4988772;28;20029;-73
2023/05/12 03:24:26;;;;;;;0.20;0.20;;;11.30;99.90;;;;;;4977908;28;20023;-73
2023/05/12 03:26:52;;;;;;;0.20;0.20;;;11.30;99.90;;;;;;4978427;28;20041;-73
2023/05/12 03:29:17;;;;;;;0.20;0.20;;;11.30;99.90;;;;;;4986822;28;20109;-73
2023/05/12 03:31:43;;;;;;;0.10;0.10;;;11.30;99.90;;;;;;4983841;28;20031;-73
2023/05/12 03:34:08;;;;;;;0.10;0.10;;;11.30;99.90;;;;;;4987844;28;20035;-73
2023/05/12 03:36:34;;;;;;;0.17;0.17;;;11.20;99.90;;;;;;4989783;28;20418;-73
2023/05/12 03:38:59;;;;;;;0.20;0.20;;;11.20;99.90;;;;;;4977630;28;20401;-73
2023/05/12 03:41:25;;;;;;;0.15;0.15;;;11.20;99.90;;;;;;4995703;28;20124;-73
2023/05/12 03:43:51;;;;;;;0.20;0.20;;;11.20;99.90;;;;;;4976687;28;20060;-73
2023/05/12 03:46:16;;;;;;;0.20;0.20;;;11.30;99.90;;;;;;4977954;28;20023;-73
2023/05/12 03:48:42;;;;;;;0.10;0.10;;;11.30;99.90;;;;;;4989409;28;20075;-73
2023/05/12 03:51:07;;;;;;;0.20;0.20;;;11.30;99.90;;;;;;4988916;28;20038;-73
2023/05/12 03:53:33;;;;;;;0.20;0.20;;;11.30;99.90;;;;;;4977644;28;20499;-73
2023/05/12 03:56:05;;;;;;;0.20;0.20;;;11.30;99.90;;;;;;4978715;28;20093;-73
2023/05/12 03:58:31;;;;;;;0.20;0.20;;;11.30;99.90;;;;;;4989334;28;20039;-73
2023/05/12 04:00:57;;;;;;;0.20;0.20;;;11.30;99.90;;;;;;4977461;28;20485;-73
2023/05/12 04:03:22;;;;;;;0.17;0.17;;;11.30;99.90;;;;;;4984900;28;20038;-73
2023/05/12 04:05:48;;;;;;;0.20;0.20;;;11.30;99.90;;;;;;4977190;28;20022;-73
2023/05/12 04:08:13;;;;;;;0.10;0.10;;;11.40;99.90;;;;;;4977166;28;20027;-73
2023/05/12 04:10:40;;;;;;;0.10;0.10;;;11.40;99.90;;;;;;4977488;28;20507;-75
2023/05/12 04:13:07;;;;;;;0.20;0.20;;;11.40;99.90;;;;;;4995866;28;20408;-73
2023/05/12 04:15:34;;;;;;;0.10;0.10;;;11.40;99.90;;;;;;4995663;28;20042;-73
2023/05/12 04:18:01;;;;;;;0.20;0.20;;;11.40;99.90;;;;;;4978950;28;20042;-73
2023/05/12 04:20:26;;;;;;;0.10;0.10;;;11.40;99.90;;;;;;4996077;28;20126;-72
2023/05/12 04:22:52;;;;;;;0.20;0.20;;;11.50;99.90;;;;;;4977096;28;20481;-73
2023/05/12 04:25:17;;;;;;;0.20;0.20;;;11.50;99.90;;;;;;4976542;28;20035;-73
2023/05/12 04:27:43;;;;;;;0.20;0.20;;;11.50;99.90;;;;;;4985721;28;20035;-73
2023/05/12 04:30:09;;;;;;;0.20;0.20;;;11.50;99.90;;;;;;4994571;28;20030;-73
2023/05/12 04:32:35;;;;;;;0.15;0.15;;;11.50;99.90;;;;;;4990176;28;20121;-72
2023/05/12 04:35:00;;;;;;;0.15;0.15;;;11.60;99.90;;;;;;4987652;28;20109;-73
2023/05/12 04:37:26;;;;;;;0.10;0.10;;;11.60;99.90;;;;;;4976415;28;20110;-73
2023/05/12 04:39:52;;;;;;;0.17;0.17;;;11.60;99.90;;;;;;4995696;28;20599;-73
2023/05/12 04:42:17;;;;;;;0.20;0.20;;;11.50;99.90;;;;;;4995530;28;20090;-73
2023/05/12 04:44:44;;;;;;;0.20;0.20;;;11.60;99.90;;;;;;4994680;28;20022;-74
2023/05/12 04:47:10;;;;;;;0.20;0.20;;;11.70;99.90;;;;;;4985392;28;20114;-73
2023/05/12 04:49:36;;;;;;;0.20;0.20;;;11.70;99.90;;;;;;4991870;28;20459;-73
2023/05/12 04:52:02;;;;;;;0.20;0.20;;;11.80;99.90;;;;;;4988538;28;20027;-73
2023/05/12 04:54:28;;;;;;;0.20;0.20;;;11.80;99.90;;;;;;4988240;28;20468;-73
2023/05/12 04:56:53;;;;;;;0.20;0.20;;;11.80;99.90;;;;;;4976084;28;20081;-73
2023/05/12 04:59:19;;;;;;;0.20;0.20;;;11.90;99.90;;;;;;4986008;28;20077;-73
2023/05/12 05:01:45;;;;;;;0.20;0.20;;;11.90;99.90;;;;;;4977563;28;20015;-73
2023/05/12 05:04:10;;;;;;;0.20;0.20;;;11.90;99.90;;;;;;4995423;28;20022;-73
2023/05/12 05:06:36;;;;;;;0.25;0.25;;;11.90;99.90;;;;;;4991098;28;20381;-73
2023/05/12 05:09:01;;;;;;;0.20;0.20;;;12.00;99.90;;;;;;4975858;28;20105;-74
2023/05/12 05:11:27;;;;;;;0.20;0.20;;;12.00;99.90;;;;;;4976063;28;20035;-73
2023/05/12 05:13:52;;;;;;;0.20;0.20;;;12.00;99.90;;;;;;4980472;28;20026;-73
2023/05/12 05:16:18;;;;;;;0.15;0.15;;;12.10;99.90;;;;;;4980503;28;20396;-73
2023/05/12 05:18:46;;;;;;;0.10;0.10;;;12.10;99.90;;;;;;4975680;28;20034;-73
2023/05/12 05:21:15;;;;;;;0.20;0.20;;;12.10;99.90;;;;;;4974675;28;20477;-73
2023/05/12 05:23:41;;;;;;;0.10;0.10;;;12.20;99.90;;;;;;4983255;28;20029;-73
2023/05/12 05:26:10;;;;;;;0.17;0.17;;;12.30;99.90;;;;;;4994630;28;20023;-73
2023/05/12 05:28:38;;;;;;;0.20;0.20;;;12.40;99.90;;;;;;4992066;28;20029;-73
2023/05/12 05:31:04;;;;;;;0.20;0.20;;;12.50;99.90;;;;;;4975632;28;20026;-73
2023/05/12 05:33:31;;;;;;;0.20;0.20;;;12.60;99.90;;;;;;4973998;28;20041;-73
2023/05/12 05:35:56;;;;;;;0.20;0.20;;;12.70;99.90;;;;;;4980648;28;20026;-73
2023/05/12 05:38:22;;;;;;;0.10;0.10;;;12.80;99.90;;;;;;4974569;28;20378;-73
2023/05/12 05:40:47;;;;;;;0.10;0.10;;;12.90;99.90;;;;;;4981583;28;20034;-73
2023/05/12 05:43:13;;;;;;;0.20;0.20;;;13.20;99.90;;;;;;4994864;28;20022;-74
2023/05/12 05:45:39;;;;;;;0.20;0.20;;;13.40;99.90;;;;;;4992984;28;20018;-73
2023/05/12 05:48:05;;;;;;;0.10;0.10;;;13.80;99.90;;;;;;4984115;28;20042;-73
2023/05/12 05:50:31;;;;;;;0.20;0.20;;;13.90;99.90;;;;;;4993849;28;20443;-73
2023/05/12 05:52:56;;;;;;;0.17;0.17;;;14.30;99.90;;;;;;4990524;28;20050;-74
2023/05/12 05:55:22;;;;;;;0.20;0.20;;;14.50;99.90;;;;;;4974771;28;20074;-73
2023/05/12 05:57:47;;;;;;;0.10;0.10;;;14.80;99.90;;;;;;4974745;28;20106;-74
2023/05/12 06:00:14;;;;;;;0.20;0.20;;;14.90;99.90;;;;;;4975191;28;20459;-73
2023/05/12 06:02:40;;;;;;;0.20;0.20;;;14.80;99.90;;;;;;4975432;28;20027;-73
2023/05/12 06:05:06;;;;;;;0.20;0.20;;;14.80;99.90;;;;;;4974690;28;20018;-73
2023/05/12 06:07:32;;;;;;;0.20;0.20;;;14.80;99.90;;;;;;4975010;28;20042;-73
2023/05/12 06:09:58;;;;;;;0.10;0.10;;;14.70;99.90;;;;;;4975065;28;20035;-74
2023/05/12 06:12:23;;;;;;;0.10;0.10;;;14.50;99.90;;;;;;4975003;28;20023;-73
2023/05/12 06:14:49;;;;;;;0.20;0.20;;;14.40;99.90;;;;;;4985844;28;20092;-72
2023/05/12 06:17:16;;;;;;;0.10;0.10;;;14.30;99.90;;;;;;4993502;28;20026;-72
2023/05/12 06:19:46;;;;;;;0.20;0.20;;;14.30;99.90;;;;;;4994111;28;20062;-73
2023/05/12 06:22:13;;;;;;;0.17;0.17;;;14.20;99.90;;;;;;4994199;28;20022;-72
2023/05/12 06:24:39;;;;;;;0.10;0.10;;;14.30;99.90;;;;;;4994122;28;20559;-72
2023/05/12 06:27:05;;;;;;;0.15;0.15;;;14.40;99.90;;;;;;4994286;28;20026;-73
2023/05/12 06:29:31;;;;;;;0.20;0.20;;;14.40;99.90;;;;;;4993913;28;20025;-73
2023/05/12 06:31:56;;;;;;;0.10;0.10;;;14.50;99.90;;;;;;4994057;28;20023;-74
2023/05/12 06:34:22;;;;;;;0.10;0.10;;;14.60;99.90;;;;;;4994017;28;20031;-73
2023/05/12 06:36:47;;;;;;;0.15;0.15;;;14.70;99.90;;;;;;4994090;28;20064;-73
2023/05/12 06:39:13;;;;;;;0.10;0.10;;;14.70;99.90;;;;;;4993478;28;20093;-72
2023/05/12 06:41:39;;;;;;;0.20;0.20;;;14.90;99.90;;;;;;4994155;28;20073;-75
2023/05/12 06:44:05;;;;;;;0.17;0.17;;;15.00;99.90;;;;;;4992786;28;20065;-76
2023/05/12 06:46:31;;;;;;;0.10;0.10;;;15.20;99.90;;;;;;4992569;28;20022;-75
2023/05/12 06:48:57;;;;;;;0.20;0.20;;;15.40;99.90;;;;;;4993802;28;20129;-73
2023/05/12 06:51:22;;;;;;;0.10;0.10;;;15.60;99.90;;;;;;4994082;28;20050;-73
2023/05/12 06:53:48;;;;;;;0.17;0.17;;;15.60;99.90;;;;;;4993194;28;20026;-73
2023/05/12 06:56:15;;;;;;;0.08;0.08;;;15.80;99.90;;;;;;4993760;28;20033;-72
2023/05/12 06:58:46;;;;;;;0.10;0.10;;;15.90;99.90;;;;;;4983406;28;20030;-72
2023/05/12 07:01:12;;;;;;;0.10;0.10;;;16.00;99.90;;;;;;4973848;28;20027;-73
2023/05/12 07:03:37;;;;;;;0.10;0.10;;;16.00;99.90;;;;;;4976544;28;20034;-73
2023/05/12 07:06:03;;;;;;;0.10;0.10;;;16.10;99.90;;;;;;4990410;28;20026;-73
2023/05/12 07:08:29;;;;;;;0.10;0.10;;;16.20;99.90;;;;;;4974605;28;20543;-72
2023/05/12 07:10:54;;;;;;;0.10;0.10;;;16.40;99.90;;;;;;4988683;28;20568;-74
2023/05/12 07:13:20;;;;;;;0.10;0.10;;;16.60;99.90;;;;;;4991941;28;20034;-73
2023/05/12 07:15:45;;;;;;;0.17;0.17;;;16.90;99.90;;;;;;4991497;28;20515;-73
2023/05/12 07:18:11;;;;;;;0.20;0.20;;;17.30;99.90;;;;;;4992041;28;20037;-75
2023/05/12 07:20:37;;;;;;;0.10;0.10;;;17.50;99.90;;;;;;4992850;28;20493;-75
2023/05/12 07:23:03;;;;;;;0.10;0.10;;;17.60;99.90;;;;;;4992258;28;20034;-75
2023/05/12 07:25:28;;;;;;;0.10;0.10;;;17.40;99.90;;;;;;4976002;28;20027;-73
2023/05/12 07:27:54;;;;;;;0.10;0.10;;;17.40;99.90;;;;;;4991611;28;20369;-72
2023/05/12 07:30:21;;;;;;;0.10;0.10;;;17.30;99.90;;;;;;4993578;28;20054;-72
2023/05/12 07:32:47;;;;;;;0.10;0.10;;;17.40;99.90;;;;;;4990893;28;20026;-72
2023/05/12 07:35:12;;;;;;;0.20;0.20;;;17.50;99.90;;;;;;4991381;28;20030;-71
2023/05/12 07:37:38;;;;;;;0.10;0.10;;;17.80;99.90;;;;;;4994024;28;20027;-71
2023/05/12 07:40:04;;;;;;;0.20;0.20;;;18.00;99.90;;;;;;4992436;28;20105;-72
2023/05/12 07:42:29;;;;;;;0.13;0.13;;;18.10;99.90;;;;;;4991347;28;20548;-72
2023/05/12 07:44:55;;;;;;;0.10;0.10;;;18.30;99.90;;;;;;4981872;28;20129;-72
2023/05/12 07:47:21;;;;;;;0.10;0.10;;;18.40;99.90;;;;;;4978306;28;20034;-72
2023/05/12 07:49:46;;;;;;;0.10;0.10;;;18.30;99.90;;;;;;4985279;28;20061;-71
2023/05/12 07:52:12;;;;;;;0.10;0.10;;;18.20;99.90;;;;;;4992400;28;20065;-72
2023/05/12 07:54:37;;;;;;;0.10;0.10;;;18.40;99.90;;;;;;4993190;28;20054;-72
2023/05/12 07:57:03;;;;;;;0.10;0.10;;;18.70;99.90;;;;;;5000886;28;20084;-72
2023/05/12 07:59:29;;;;;;;0.10;0.10;;;19.20;99.90;;;;;;5015304;28;20022;-71
2023/05/12 08:01:54;;;;;;;0.10;0.10;;;19.70;99.90;;;;;;5004448;28;20030;-72
2023/05/12 08:04:20;;;;;;;0.10;0.10;;;20.00;99.90;;;;;;5015111;28;20026;-72
2023/05/12 08:06:45;;;;;;;0.10;0.10;;;20.40;99.90;;;;;;4997006;28;20026;-72
2023/05/12 08:09:11;;;;;;;0.10;0.10;;;20.70;99.90;;;;;;4996270;28;20030;-73
2023/05/12 08:11:36;;;;;;;0.00;0.00;;;20.80;99.90;;;;;;4994074;28;20057;-73
2023/05/12 08:14:02;;;;;;;0.10;0.10;;;21.20;99.90;;;;;;4996633;28;20043;-73
2023/05/12 08:16:28;;;;;;;0.10;0.10;;;21.30;99.90;;;;;;4992257;28;20026;-74
2023/05/12 08:18:53;;;;;;;0.10;0.10;;;21.60;99.90;;;;;;4996409;28;20026;-73
2023/05/12 08:21:19;;;;;;;0.10;0.10;;;21.80;99.90;;;;;;4993751;28;20037;-74
2023/05/12 08:23:44;;;;;;;0.10;0.10;;;21.90;99.90;;;;;;4996374;28;20037;-74
2023/05/12 08:26:10;;;;;;;0.03;0.03;;;22.00;99.90;;;;;;4993059;28;20029;-74
2023/05/12 08:28:35;;;;;;;0.03;0.03;;;22.20;99.90;;;;;;4993478;28;20427;-74
2023/05/12 08:31:01;;;;;;;0.10;0.10;;;22.20;99.90;;;;;;4995207;28;20431;-74
2023/05/12 08:33:27;;;;;;;0.10;0.10;;;22.30;99.90;;;;;;4995154;28;20038;-74
2023/05/12 08:35:52;;;;;;;0.00;0.00;;;22.30;99.90;;;;;;4993943;28;20034;-73
2023/05/12 08:38:18;;;;;;;0.00;0.00;;;22.30;99.90;;;;;;4996149;28;20540;-73
2023/05/12 08:41:13;;;;;;;0.00;0.00;;;22.40;99.90;;;;;;4983992;28;20030;-74
2023/05/12 08:43:43;;;;;;;0.00;0.00;;;22.50;99.90;;;;;;4996605;28;20026;-73
2023/05/12 08:46:10;;;;;;;0.00;0.00;;;22.50;99.90;;;;;;4990864;28;20088;-74
2023/05/12 08:48:38;;;;;;;0.05;0.05;;;22.40;99.90;;;;;;4996009;28;20030;-73
2023/05/12 08:51:08;;;;;;;0.00;0.00;;;22.50;99.90;;;;;;4995292;28;20034;-74
2023/05/12 08:53:36;;;;;;;0.00;0.00;;;22.50;99.90;;;;;;4995482;28;20040;-74
2023/05/12 08:56:04;;;;;;;0.00;0.00;;;22.70;99.90;;;;;;4994672;28;20062;-75
2023/05/12 08:58:30;;;;;;;0.00;0.00;;;22.90;99.90;;;;;;4991753;28;20030;-74
2023/05/12 09:00:59;;;;;;;0.00;0.00;;;22.90;99.90;;;;;;4985132;28;20093;-74
2023/05/12 09:03:26;;;;;;;0.00;0.00;;;22.70;99.90;;;;;;4990321;28;20097;-74
2023/05/12 09:05:53;;;;;;;0.10;0.10;;;22.00;99.90;;;;;;4987931;28;20030;-74
2023/05/12 09:08:18;;;;;;;0.05;0.05;;;21.60;99.90;;;;;;4995676;28;20357;-73
2023/05/12 09:10:44;;;;;;;0.00;0.00;;;21.40;99.90;;;;;;4993444;28;20041;-74
2023/05/12 09:13:19;;;;;;;0.10;0.10;;;21.50;99.90;;;;;;4994736;28;20492;-74
2023/05/12 09:15:47;;;;;;;0.10;0.10;;;21.90;99.90;;;;;;4994362;28;20573;-73
2023/05/12 09:18:12;;;;;;;0.00;0.00;;;22.40;99.90;;;;;;4995676;28;20423;-73
2023/05/12 09:20:38;;;;;;;0.00;0.00;;;22.90;99.90;;;;;;4994228;28;20029;-74
2023/05/12 09:23:20;;;;;;;0.00;0.00;;;23.10;99.90;;;;;;4995191;28;20543;-74
2023/05/12 09:25:57;;;;;;;0.10;0.10;;;23.50;99.90;;;;;;4993262;28;20421;-74
2023/05/12 09:28:22;;;;;;;0.00;0.00;;;23.50;99.90;;;;;;4995267;28;20038;-73
2023/05/12 09:30:48;;;;;;;0.00;0.00;;;23.30;99.90;;;;;;4992568;28;20018;-74
2023/05/12 09:33:13;;;;;;;0.00;0.00;;;23.30;99.90;;;;;;4995046;28;20026;-74
2023/05/12 09:35:43;;;;;;;0.00;0.00;;;23.30;99.90;;;;;;4992520;28;20029;-74
2023/05/12 09:38:12;;;;;;;0.00;0.00;;;23.50;99.90;;;;;;4994415;28;20033;-74
2023/05/12 09:40:38;;;;;;;0.00;0.00;;;23.60;99.90;;;;;;4994176;28;20026;-74
2023/05/12 09:43:07;;;;;;;0.00;0.00;;;23.70;99.90;;;;;;4994834;28;20395;-75
2023/05/12 09:45:34;;;;;;;0.00;0.00;;;23.60;99.90;;;;;;4993568;28;20109;-74
2023/05/12 09:48:10;;;;;;;0.00;0.00;;;23.50;99.90;;;;;;4993183;28;20030;-75
2023/05/12 09:50:43;;;;;;;0.00;0.00;;;23.50;99.90;;;;;;4993162;28;20093;-74
2023/05/12 09:53:09;;;;;;;0.08;0.08;;;23.40;99.90;;;;;;4977178;28;20073;-74
2023/05/12 09:55:35;;;;;;;0.00;0.00;;;23.70;99.90;;;;;;4989704;28;20027;-75
2023/05/12 09:58:07;;;;;;;0.00;0.00;;;23.80;99.90;;;;;;4986248;28;20089;-75
2023/05/12 10:00:33;;;;;;;0.00;0.00;;;24.10;99.90;;;;;;4990763;28;20118;-74
2023/05/12 10:02:59;;;;;;;0.00;0.00;;;24.00;99.90;;;;;;4992240;28;20105;-76
2023/05/12 10:05:25;;;;;;;0.00;0.00;;;23.90;99.90;;;;;;4993860;28;20042;-75
2023/05/12 10:07:53;;;;;;;0.00;0.00;;;23.90;99.90;;;;;;4993578;28;20061;-76
2023/05/12 10:10:22;;;;;;;0.00;0.00;;;24.10;99.90;;;;;;4993225;28;20030;-74
2023/05/12 10:12:48;;;;;;;0.00;0.00;;;24.20;99.90;;;;;;4994281;28;20081;-74
2023/05/12 10:15:16;;;;;;;0.00;0.00;;;24.40;99.90;;;;;;4969721;28;20054;-74
2023/05/12 10:17:43;;;;;;;0.00;0.00;;;24.50;99.90;;;;;;4977883;28;20080;-73
2023/05/12 10:20:10;;;;;;;0.00;0.00;;;24.80;99.90;;;;;;4993210;28;20432;-74
2023/05/12 10:22:39;;;;;;;0.00;0.00;;;24.80;99.90;;;;;;4994322;28;20022;-73
2023/05/12 10:25:07;;;;;;;0.00;0.00;;;24.70;99.90;;;;;;4992679;28;20026;-71
2023/05/12 10:27:34;;;;;;;0.00;0.00;;;24.90;99.90;;;;;;4993943;28;20041;-72
2023/05/12 10:30:01;;;;;;;0.00;0.00;;;25.20;99.90;;;;;;4992600;28;20030;-72
2023/05/12 10:32:27;;;;;;;0.00;0.00;;;25.30;99.90;;;;;;4993887;28;20106;-72
2023/05/12 10:34:53;;;;;;;0.00;0.00;;;25.30;99.90;;;;;;4992947;28;20113;-73
2023/05/12 10:37:21;;;;;;;0.00;0.00;;;25.50;99.90;;;;;;4993814;28;20026;-72
2023/05/12 10:39:48;;;;;;;0.00;0.00;;;25.60;99.90;;;;;;4991134;28;20050;-73
2023/05/12 10:42:19;;;;;;;0.00;0.00;;;25.50;99.90;;;;;;4991019;28;20053;-73
2023/05/12 10:44:50;;;;;;;0.00;0.00;;;25.50;99.90;;;;;;4991528;28;20119;-73
2023/05/12 10:47:16;;;;;;;0.00;0.00;;;25.60;99.90;;;;;;4974855;28;20034;-73
2023/05/12 10:49:42;;;;;;;0.00;0.00;;;25.60;99.90;;;;;;4974188;28;20370;-73
2023/05/12 10:52:10;;;;;;;0.00;0.00;;;25.60;99.90;;;;;;4973934;28;20030;-73
2023/05/12 10:54:45;;;;;;;0.00;0.00;;;25.60;99.90;;;;;;4956964;28;20023;-73
2023/05/12 10:57:12;;;;;;;0.00;0.00;;;25.50;99.90;;;;;;4980104;28;20110;-76
2023/05/12 10:59:50;;;;;;;0.00;0.00;;;25.70;99.90;;;;;;4980914;28;20038;-75
2023/05/12 11:02:18;;;;;;;0.00;0.00;;;25.60;99.90;;;;;;4978394;28;20042;-75
2023/05/12 11:04:51;;;;;;;0.00;0.00;;;25.70;99.90;;;;;;4987060;28;20018;-76
2023/05/12 11:07:28;;;;;;;0.00;0.00;;;25.50;99.90;;;;;;4966579;28;20018;-75
2023/05/12 11:09:56;;;;;;;0.00;0.00;;;25.50;99.90;;;;;;4976598;28;20280;-75
2023/05/12 11:12:21;;;;;;;0.00;0.00;;;25.60;99.90;;;;;;4978602;28;20123;-75
2023/05/12 11:14:47;;;;;;;0.00;0.00;;;25.60;99.90;;;;;;4984247;28;20064;-75
2023/05/12 11:17:14;;;;;;;0.00;0.00;;;26.00;99.90;;;;;;4979093;28;20049;-75
2023/05/12 11:19:47;;;;;;;0.00;0.00;;;26.00;99.90;;;;;;4978744;28;20035;-75
2023/05/12 11:22:15;;;;;;;;;;;26.00;99.90;;;;;;4978238;28;20038;-75
2023/05/12 11:24:41;;;;;;;0.00;0.00;;;26.10;99.90;;;;;;4978652;28;20483;-75
2023/05/12 11:27:12;;;;;;;0.00;0.00;;;26.00;99.90;;;;;;4979392;28;20806;-74
2023/05/12 11:29:39;;;;;;;0.00;0.00;;;26.10;99.90;;;;;;4980972;28;20034;-75
2023/05/12 11:32:05;;;;;;;0.00;0.00;;;26.00;99.90;;;;;;4985984;28;20035;-76
2023/05/12 11:34:30;;;;;;;0.00;0.00;;;26.00;99.90;;;;;;4996064;28;20025;-74
2023/05/12 11:36:56;;;;;;;0.00;0.00;;;26.10;99.90;;;;;;4981996;28;20117;-75
2023/05/12 11:39:26;;;;;;;0.00;0.00;;;26.30;99.90;;;;;;4992468;28;20554;-74
2023/05/12 11:41:53;;;;;;;0.00;0.00;;;26.30;99.90;;;;;;4988943;28;20037;-75
2023/05/12 11:44:20;;;;;;;0.00;0.00;;;26.30;99.90;;;;;;4985820;28;20510;-73
2023/05/12 11:47:18;;;;;;;0.00;0.00;;;26.50;99.90;;;;;;4988799;28;20551;-74
2023/05/12 11:49:47;;;;;;;0.00;0.00;;;27.00;99.90;;;;;;4992193;28;20389;-74
2023/05/12 11:52:13;;;;;;;0.00;0.00;;;27.30;99.90;;;;;;4987882;28;20050;-73
2023/05/12 11:54:38;;;;;;;0.00;0.00;;;27.40;99.90;;;;;;4992452;28;20118;-73
2023/05/12 11:57:04;;;;;;;0.00;0.00;;;27.60;99.90;;;;;;4995536;28;20062;-72
2023/05/12 11:59:33;;;;;;;0.00;0.00;;;27.90;99.90;;;;;;4994997;28;20060;-73
2023/05/12 12:02:00;;;;;;;0.00;0.00;;;28.20;99.90;;;;;;4994349;28;20499;-72
2023/05/12 12:04:40;;;;;;;0.00;0.00;;;28.20;97.60;;;;;;4996494;28;20442;-72
2023/05/12 12:07:07;;;;;;;0.00;0.00;;;28.20;96.80;;;;;;4995114;28;20026;-76
2023/05/12 12:09:35;;;;;;;0.00;0.00;;;28.00;94.80;;;;;;4996873;28;20022;-77
2023/05/12 12:12:01;;;;;;;0.00;0.00;;;28.20;95.50;;;;;;4995785;28;20072;-77
2023/05/12 12:14:27;;;;;;;0.00;0.00;;;28.40;95.70;;;;;;4996075;28;20034;-77
2023/05/12 12:16:53;;;;;;;0.00;0.00;;;28.10;91.80;;;;;;4995009;28;20101;-77
2023/05/12 12:19:18;;;;;;;0.00;0.00;;;28.30;91.70;;;;;;4995453;28;20037;-76
2023/05/12 12:21:44;;;;;;;0.00;0.00;;;28.30;91.60;;;;;;4995731;28;20018;-77
2023/05/12 12:24:10;;;;;;;0.00;0.00;;;28.40;90.80;;;;;;4986520;28;20085;-76
2023/05/12 12:26:35;;;;;;;0.00;0.00;;;28.70;88.20;;;;;;4983390;28;20026;-76
2023/05/12 12:29:01;;;;;;;0.00;0.00;;;28.60;88.90;;;;;;4985896;28;20037;-77
2023/05/12 12:31:26;;;;;;;0.00;0.00;;;28.40;89.10;;;;;;4986382;28;20041;-76
2023/05/12 12:33:52;;;;;;;0.00;0.00;;;28.70;91.00;;;;;;4992893;28;20029;-77
2023/05/12 12:36:17;;;;;;;0.00;0.00;;;28.80;90.40;;;;;;4993288;28;20614;-77
2023/05/12 12:38:43;;;;;;;0.00;0.00;;;29.10;87.70;;;;;;4996076;28;20051;-78
2023/05/12 12:41:09;;;;;;;0.00;0.00;;;29.20;88.70;;;;;;4996255;28;20018;-77
2023/05/12 12:43:34;;;;;;;0.00;0.00;;;29.40;88.80;;;;;;4995932;28;20061;-77
2023/05/12 12:46:00;;;;;;;0.00;0.00;;;29.70;87.40;;;;;;4996088;28;20026;-77